Time;durP1;ratioP1;P1;durP2;ratioP2;P2;SDS_P1;SDS_P2;PMS_P1;PMS_P2;Temp;Humidity;BMP_temperature;BMP_pressure;BME280_temperature;BME280_humidity;BME280_pressure;Samples;Min_cycle;Max_cycle;Signal;HPM_P1;HPM_P2
2022/09/21 00:00:00;;;;;;;11.90;7.20;;;;;;;6.69;100.00;102612.44;5283167;28;20820;-71
2022/09/21 00:02:31;;;;;;;10.32;6.07;;;;;;;6.71;100.00;102613.19;5280534;28;20036;-71
2022/09/21 00:05:01;;;;;;;16.48;8.00;;;;;;;6.70;100.00;102610.63;5266997;28;20023;-72
2022/09/21 00:07:32;;;;;;;13.57;7.10;;;;;;;6.69;100.00;102601.78;5281320;28;20027;-72
2022/09/21 00:10:03;;;;;;;15.85;7.43;;;;;;;6.67;100.00;102600.16;5287916;28;20023;-72
2022/09/21 00:12:37;;;;;;;16.30;8.07;;;;;;;6.65;100.00;102610.91;5272833;28;20028;-72
2022/09/21 00:15:09;;;;;;;15.77;8.15;;;;;;;6.68;100.00;102609.88;5266125;28;20055;-72
2022/09/21 00:17:40;;;;;;;16.85;8.38;;;;;;;6.61;100.00;102603.22;5271690;28;20030;-71
2022/09/21 00:20:11;;;;;;;14.10;7.18;;;;;;;6.53;100.00;102610.84;5288151;28;20028;-72
2022/09/21 00:22:41;;;;;;;19.92;8.95;;;;;;;6.44;100.00;102607.81;5288272;28;20020;-72
2022/09/21 00:25:12;;;;;;;12.15;7.30;;;;;;;6.41;100.00;102612.47;5287558;28;20027;-72
2022/09/21 00:27:43;;;;;;;16.95;8.45;;;;;;;6.38;100.00;102612.69;5272514;28;20024;-72
2022/09/21 00:30:14;;;;;;;21.05;9.57;;;;;;;6.42;100.00;102617.69;5281086;28;20027;-71
2022/09/21 00:32:44;;;;;;;20.23;10.40;;;;;;;6.45;100.00;102614.84;5288137;28;20023;-71
2022/09/21 00:35:15;;;;;;;21.65;9.57;;;;;;;6.43;100.00;102619.44;5287173;28;20064;-72
2022/09/21 00:37:45;;;;;;;21.48;10.02;;;;;;;6.39;100.00;102617.91;5288208;28;20030;-72
2022/09/21 00:40:16;;;;;;;20.63;9.02;;;;;;;6.39;100.00;102617.06;5273779;28;20027;-72
2022/09/21 00:42:46;;;;;;;15.68;8.25;;;;;;;6.37;100.00;102622.44;5283759;28;20023;-73
2022/09/21 00:48:03;;;;;;;12.82;7.30;;;;;;;6.36;100.00;102617.22;5279928;28;20031;-72
2022/09/21 00:50:38;;;;;;;12.82;7.10;;;;;;;6.38;100.00;102618.00;5274589;28;20027;-73
2022/09/21 00:53:10;;;;;;;12.82;7.70;;;;;;;6.37;100.00;102617.13;5271372;28;20017;-72
2022/09/21 00:55:48;;;;;;;13.45;7.43;;;;;;;6.34;100.00;102616.47;5275737;28;20072;-73
2022/09/21 00:58:24;;;;;;;14.13;6.90;;;;;;;6.32;100.00;102616.56;5276553;28;20157;-71
2022/09/21 01:00:58;;;;;;;13.15;6.90;;;;;;;6.32;100.00;102613.88;5273439;28;20039;-73
2022/09/21 01:03:30;;;;;;;14.02;8.07;;;;;;;6.33;100.00;102615.63;5281764;28;20019;-73
2022/09/21 01:06:01;;;;;;;13.88;8.18;;;;;;;6.31;100.00;102617.50;5285569;28;20023;-70
2022/09/21 01:08:41;;;;;;;16.00;8.43;;;;;;;6.26;100.00;102614.28;5266433;28;20035;-72
2022/09/21 01:11:12;;;;;;;19.25;9.05;;;;;;;6.21;100.00;102614.56;5284218;28;20031;-71
2022/09/21 01:13:44;;;;;;;14.93;8.55;;;;;;;6.17;100.00;102620.16;5269341;28;20026;-72
2022/09/21 01:16:23;;;;;;;15.40;8.88;;;;;;;6.13;100.00;102618.66;5281072;28;20048;-72
2022/09/21 01:19:09;;;;;;;13.57;7.40;;;;;;;6.08;100.00;102623.44;5279917;28;20015;-72
2022/09/21 01:22:18;;;;;;;14.88;7.78;;;;;;;6.05;100.00;102621.78;5277079;28;20035;-72
2022/09/21 01:24:49;;;;;;;15.77;7.20;;;;;;;6.03;100.00;102621.03;5274488;28;20023;-72
2022/09/21 01:27:43;;;;;;;10.70;7.28;;;;;;;6.03;100.00;102622.84;5286788;28;20058;-73
2022/09/21 01:30:18;;;;;;;24.50;7.57;;;;;;;5.98;100.00;102620.47;5272915;28;20066;-71
2022/09/21 01:32:56;;;;;;;12.05;7.00;;;;;;;5.97;100.00;102616.94;5272328;28;20036;-71
2022/09/21 01:35:33;;;;;;;201.57;17.67;;;;;;;5.95;100.00;102618.81;5282005;28;20011;-70
2022/09/21 01:38:11;;;;;;;14.30;7.65;;;;;;;5.92;100.00;102627.03;5274682;28;20062;-70
2022/09/21 01:40:49;;;;;;;75.00;10.65;;;;;;;5.89;100.00;102623.66;5265088;28;20405;-71
2022/09/21 01:43:26;;;;;;;16.80;7.72;;;;;;;5.85;100.00;102619.44;5281445;28;20362;-72
2022/09/21 01:46:00;;;;;;;13.52;8.10;;;;;;;5.80;100.00;102622.38;5286159;28;20038;-72
2022/09/21 01:48:35;;;;;;;14.02;8.02;;;;;;;5.78;100.00;102621.63;5286365;28;20052;-72
2022/09/21 01:51:10;;;;;;;11.48;7.10;;;;;;;5.79;100.00;102619.81;5273529;28;20516;-72
2022/09/21 01:53:48;;;;;;;11.20;6.80;;;;;;;5.80;100.00;102616.19;5279290;28;20016;-71
2022/09/21 01:56:35;;;;;;;10.00;6.47;;;;;;;5.78;100.00;102624.28;5267040;28;20035;-72
2022/09/21 01:59:26;;;;;;;31.58;7.57;;;;;;;5.76;100.00;102618.19;5274710;28;20838;-72
2022/09/21 02:02:01;;;;;;;26.13;8.02;;;;;;;5.71;100.00;102613.13;5274529;28;20020;-70
2022/09/21 02:04:33;;;;;;;41.45;6.70;;;;;;;5.69;100.00;102614.19;5272271;28;20028;-71
2022/09/21 02:07:06;;;;;;;18.23;7.35;;;;;;;5.68;100.00;102609.81;5275647;28;20731;-72
2022/09/21 02:09:37;;;;;;;77.30;9.15;;;;;;;5.66;100.00;102609.88;5270781;28;20054;-72
2022/09/21 02:12:10;;;;;;;80.65;8.45;;;;;;;5.64;100.00;102613.59;5286685;28;20020;-71
2022/09/21 02:14:41;;;;;;;48.80;7.75;;;;;;;5.59;100.00;102611.22;5279660;28;20077;-72
2022/09/21 02:17:45;;;;;;;54.47;9.77;;;;;;;5.55;100.00;102611.47;5278722;28;20088;-70
2022/09/21 02:20:22;;;;;;;11.55;7.07;;;;;;;5.53;100.00;102608.06;5265344;28;20032;-70
2022/09/21 02:23:23;;;;;;;13.68;8.45;;;;;;;5.52;100.00;102616.97;5274333;28;20485;-70
2022/09/21 02:26:09;;;;;;;12.40;7.45;;;;;;;5.52;100.00;102614.31;5272453;28;20035;-72
2022/09/21 02:28:59;;;;;;;14.20;7.65;;;;;;;5.49;100.00;102619.84;5287488;28;20024;-71
2022/09/21 02:31:38;;;;;;;16.83;9.50;;;;;;;5.45;100.00;102617.34;5288638;28;20116;-71
2022/09/21 02:34:20;;;;;;;22.42;9.45;;;;;;;5.42;100.00;102620.19;5278194;28;20469;-71
2022/09/21 02:36:57;;;;;;;16.50;10.45;;;;;;;5.39;100.00;102617.69;5291337;28;20492;-72
2022/09/21 02:39:37;;;;;;;17.75;9.57;;;;;;;5.37;100.00;102616.94;5292296;28;20027;-71
2022/09/21 02:42:13;;;;;;;32.55;10.40;;;;;;;5.36;100.00;102615.22;5277845;28;20032;-71
2022/09/21 02:44:51;;;;;;;16.65;10.02;;;;;;;5.35;100.00;102609.97;5278478;28;20496;-72
2022/09/21 02:47:58;;;;;;;18.58;10.45;;;;;;;5.33;100.00;102606.56;5268868;28;20024;-72
2022/09/21 02:50:36;;;;;;;23.52;10.43;;;;;;;5.30;100.00;102607.59;5276152;28;20027;-72
2022/09/21 02:53:10;;;;;;;15.77;9.30;;;;;;;5.27;100.00;102601.56;5289725;28;20089;-73
2022/09/21 02:55:44;;;;;;;19.95;10.55;;;;;;;5.23;100.00;102614.22;5279082;28;20496;-73
2022/09/21 02:58:16;;;;;;;18.33;8.95;;;;;;;5.21;100.00;102608.13;5286961;28;20469;-72
2022/09/21 03:00:47;;;;;;;19.77;9.50;;;;;;;5.19;100.00;102607.34;5277991;28;20020;-72
2022/09/21 03:03:19;;;;;;;43.08;10.98;;;;;;;5.15;100.00;102609.34;5281984;28;20157;-72
2022/09/21 03:05:53;;;;;;;29.52;12.00;;;;;;;5.14;100.00;102606.75;5288839;28;20024;-72
2022/09/21 03:08:23;;;;;;;17.77;10.15;;;;;;;5.12;100.00;102608.63;5268965;28;20057;-73
2022/09/21 03:10:54;;;;;;;46.20;11.23;;;;;;;5.11;100.00;102607.78;5282533;28;20024;-73
2022/09/21 03:13:24;;;;;;;90.28;12.20;;;;;;;5.09;100.00;102609.69;5268881;28;20529;-73
2022/09/21 03:16:11;;;;;;;76.65;13.07;;;;;;;5.06;100.00;102615.16;5284032;28;20043;-72
2022/09/21 03:18:43;;;;;;;22.48;10.73;;;;;;;5.02;100.00;102607.44;5276898;28;20053;-72
2022/09/21 03:21:13;;;;;;;20.75;10.75;;;;;;;4.99;100.00;102610.31;5269072;28;20419;-72
2022/09/21 03:23:44;;;;;;;23.45;10.88;;;;;;;4.96;100.00;102613.13;5267939;28;20078;-73
2022/09/21 03:26:14;;;;;;;21.95;11.35;;;;;;;4.96;100.00;102610.47;5268094;28;20476;-72
2022/09/21 03:28:45;;;;;;;23.58;12.88;;;;;;;4.95;100.00;102606.94;5273789;28;20098;-72
2022/09/21 03:31:16;;;;;;;25.92;14.25;;;;;;;4.96;100.00;102613.97;5269610;28;20111;-73
2022/09/21 03:33:46;;;;;;;31.20;15.20;;;;;;;4.99;100.00;102613.81;5289769;28;20019;-72
2022/09/21 03:36:17;;;;;;;26.25;13.15;;;;;;;5.00;100.00;102620.84;5289085;28;20381;-73
2022/09/21 03:38:47;;;;;;;29.15;13.98;;;;;;;4.99;100.00;102618.28;5270796;28;20530;-73
2022/09/21 03:41:18;;;;;;;27.27;13.30;;;;;;;4.99;100.00;102621.81;5279665;28;20469;-71
2022/09/21 03:43:48;;;;;;;35.63;17.15;;;;;;;4.96;100.00;102619.31;5283758;28;20031;-73
2022/09/21 03:46:19;;;;;;;37.03;19.25;;;;;;;4.92;100.00;102623.97;5275386;28;20474;-72
2022/09/21 03:48:49;;;;;;;43.83;21.25;;;;;;;4.88;100.00;102619.75;5275068;28;20020;-71
2022/09/21 03:51:20;;;;;;;44.45;20.08;;;;;;;4.86;100.00;102624.28;5275580;28;20099;-72
2022/09/21 03:53:50;;;;;;;26.98;14.77;;;;;;;4.86;100.00;102628.75;5288549;28;20453;-70
2022/09/21 03:56:20;;;;;;;38.55;18.40;;;;;;;4.83;100.00;102621.81;5286206;28;20070;-70
2022/09/21 03:58:51;;;;;;;82.60;17.60;;;;;;;4.82;100.00;102622.75;5279882;28;20077;-70
2022/09/21 04:01:21;;;;;;;165.98;26.77;;;;;;;4.78;100.00;102623.00;5274990;28;20027;-71
2022/09/21 04:03:52;;;;;;;38.03;16.05;;;;;;;4.75;100.00;102624.03;5288779;28;20085;-71
2022/09/21 04:06:23;;;;;;;29.63;14.82;;;;;;;4.72;100.00;102621.56;5269942;28;20027;-71
2022/09/21 04:08:55;;;;;;;30.83;16.50;;;;;;;4.70;100.00;102626.09;5279661;28;20020;-71
2022/09/21 04:11:25;;;;;;;33.28;15.43;;;;;;;4.66;100.00;102616.56;5269300;28;20026;-70
2022/09/21 04:13:56;;;;;;;48.22;21.00;;;;;;;4.64;100.00;102615.78;5267468;28;20023;-70
2022/09/21 04:16:27;;;;;;;63.35;20.27;;;;;;;4.61;100.00;102613.28;5273658;28;20038;-71
2022/09/21 04:18:57;;;;;;;49.05;19.00;;;;;;;4.57;100.00;102614.44;5273074;28;20035;-71
2022/09/21 04:21:28;;;;;;;39.58;18.58;;;;;;;4.54;100.00;102609.25;5276566;28;20040;-70
2022/09/21 04:24:00;;;;;;;47.33;21.10;;;;;;;4.54;100.00;102611.94;5287785;28;20035;-70
2022/09/21 04:26:33;;;;;;;46.92;22.25;;;;;;;4.58;100.00;102613.47;5280308;28;20090;-70
2022/09/21 04:29:04;;;;;;;43.38;22.55;;;;;;;4.57;100.00;102612.63;5288020;28;20027;-70
2022/09/21 04:31:34;;;;;;;42.83;20.90;;;;;;;4.54;100.00;102610.13;5288419;28;20106;-70
2022/09/21 04:34:04;;;;;;;44.55;22.05;;;;;;;4.53;100.00;102604.91;5283311;28;20034;-70
2022/09/21 04:36:35;;;;;;;42.72;20.25;;;;;;;4.52;100.00;102613.78;5287625;28;20023;-69
2022/09/21 04:39:05;;;;;;;32.65;17.42;;;;;;;4.53;100.00;102620.84;5274354;28;20573;-69
2022/09/21 04:41:36;;;;;;;40.53;17.83;;;;;;;4.55;100.00;102622.47;5272977;28;20103;-70
2022/09/21 04:44:06;;;;;;;30.50;16.38;;;;;;;4.59;100.00;102629.34;5283808;28;20026;-71
2022/09/21 04:46:37;;;;;;;36.40;17.23;;;;;;;4.69;100.00;102629.69;5287799;28;20031;-70
2022/09/21 04:49:07;;;;;;;34.20;16.95;;;;;;;4.76;100.00;102628.38;5278055;28;20027;-71
2022/09/21 04:51:38;;;;;;;36.25;17.65;;;;;;;4.80;100.00;102637.06;5283701;28;20072;-72
2022/09/21 04:54:09;;;;;;;33.63;15.73;;;;;;;4.80;100.00;102627.28;5286482;28;20397;-70
2022/09/21 04:56:40;;;;;;;29.05;14.57;;;;;;;4.76;100.00;102631.06;5269507;28;20016;-71
2022/09/21 04:59:10;;;;;;;27.90;14.07;;;;;;;4.70;100.00;102627.88;5269298;28;20024;-71
2022/09/21 05:01:41;;;;;;;20.95;12.40;;;;;;;4.71;100.00;102633.09;5286160;28;20028;-71
2022/09/21 05:04:11;;;;;;;23.20;12.98;;;;;;;4.79;100.00;102635.34;5273054;28;20120;-71
2022/09/21 05:06:42;;;;;;;33.42;11.82;;;;;;;4.88;100.00;102641.03;5266126;28;20402;-70
2022/09/21 05:12:01;;;;;;;126.18;18.27;;;;;;;5.11;100.00;102639.72;5276418;28;20032;-70
2022/09/21 05:14:32;;;;;;;54.70;14.40;;;;;;;5.15;100.00;102643.06;5283768;28;20445;-69
2022/09/21 05:17:02;;;;;;;81.68;16.02;;;;;;;5.21;100.00;102640.03;5287136;28;20523;-69
2022/09/21 05:19:33;;;;;;;184.60;18.30;;;;;;;5.25;100.00;102640.75;5273299;28;20106;-70
2022/09/21 05:22:03;;;;;;;111.95;15.15;;;;;;;5.16;100.00;102640.31;5287036;28;20068;-71
2022/09/21 05:24:34;;;;;;;62.53;14.13;;;;;;;5.13;100.00;102642.31;5286400;28;20038;-71
2022/09/21 05:27:05;;;;;;;28.25;12.75;;;;;;;5.10;100.00;102640.66;5279297;28;20110;-72
2022/09/21 05:29:36;;;;;;;55.15;13.75;;;;;;;5.09;100.00;102646.09;5286620;28;20027;-70
2022/09/21 05:32:22;;;;;;;49.63;15.10;;;;;;;5.08;100.00;102645.22;5287071;28;20047;-70
2022/09/21 05:35:06;;;;;;;60.30;14.07;;;;;;;5.07;100.00;102642.63;5281631;28;20393;-70
2022/09/21 05:37:59;;;;;;;28.05;11.77;;;;;;;5.01;100.00;102642.97;5266405;28;20427;-70
2022/09/21 05:40:30;;;;;;;24.35;11.65;;;;;;;4.97;100.00;102649.41;5279382;28;20039;-70
2022/09/21 05:43:01;;;;;;;32.42;13.38;;;;;;;4.97;100.00;102649.41;5278466;28;20501;-69
2022/09/21 05:45:32;;;;;;;30.70;12.15;;;;;;;4.98;100.00;102648.50;5272166;28;20035;-69
2022/09/21 05:48:12;;;;;;;21.95;12.48;;;;;;;5.00;100.00;102649.25;5286419;28;20031;-69
2022/09/21 05:50:48;;;;;;;42.70;12.50;;;;;;;5.02;100.00;102656.22;5273711;28;20362;-70
2022/09/21 05:53:39;;;;;;;125.65;15.02;;;;;;;5.05;100.00;102649.84;5283651;28;20383;-69
2022/09/21 05:56:46;;;;;;;172.63;16.27;;;;;;;5.05;100.00;102650.72;5264923;28;20028;-70
2022/09/21 05:59:54;;;;;;;76.90;12.27;;;;;;;5.01;100.00;102653.63;5268809;28;20081;-70
2022/09/21 06:02:49;;;;;;;26.27;13.32;;;;;;;5.00;100.00;102660.75;5277333;28;20397;-70
2022/09/21 06:05:20;;;;;;;40.13;11.93;;;;;;;5.07;100.00;102666.56;5273694;28;20032;-69
2022/09/21 06:07:51;;;;;;;55.70;13.38;;;;;;;5.09;100.00;102675.34;5272103;28;20101;-70
2022/09/21 06:10:23;;;;;;;33.78;12.95;;;;;;;5.19;100.00;102676.53;5276067;28;20074;-70
2022/09/21 06:12:54;;;;;;;28.90;12.65;;;;;;;5.28;100.00;102665.38;5269696;28;20100;-70
2022/09/21 06:15:24;;;;;;;25.83;12.65;;;;;;;5.53;100.00;102679.94;5273757;28;20107;-70
2022/09/21 06:17:57;;;;;;;29.00;11.18;;;;;;;5.84;100.00;102684.31;5270829;28;20056;-70
2022/09/21 06:20:27;;;;;;;18.45;10.20;;;;;;;6.16;100.00;102682.41;5273151;28;20363;-70
2022/09/21 06:23:00;;;;;;;18.95;11.20;;;;;;;6.54;100.00;102679.22;5279069;28;20161;-69
2022/09/21 06:25:31;;;;;;;15.00;9.68;;;;;;;6.93;100.00;102683.88;5279431;28;20102;-70
2022/09/21 06:28:19;;;;;;;20.30;10.07;;;;;;;7.23;100.00;102679.22;5285829;28;20556;-70
2022/09/21 06:30:51;;;;;;;20.38;9.02;;;;;;;7.50;100.00;102679.22;5286118;28;20039;-70
2022/09/21 06:33:22;;;;;;;19.60;9.90;;;;;;;7.70;100.00;102687.72;5286199;28;20106;-69
2022/09/21 06:35:54;;;;;;;17.65;9.75;;;;;;;7.86;100.00;102669.69;5282135;28;20027;-70
2022/09/21 06:38:27;;;;;;;13.82;9.18;;;;;;;8.21;100.00;102677.94;5270591;28;20504;-70
2022/09/21 06:41:16;;;;;;;23.80;8.82;;;;;;;8.74;100.00;102680.53;5277154;28;20024;-70
2022/09/21 06:43:47;;;;;;;15.60;8.85;;;;;;;9.36;100.00;102682.28;5271508;28;20028;-71
2022/09/21 06:46:17;;;;;;;17.23;8.98;;;;;;;9.90;100.00;102688.00;5274668;28;20030;-70
2022/09/21 06:48:48;;;;;;;14.90;8.57;;;;;;;10.40;100.00;102671.69;5283438;28;20464;-70
2022/09/21 06:51:20;;;;;;;16.95;8.23;;;;;;;10.79;100.00;102678.38;5282408;28;20405;-71
2022/09/21 06:54:10;;;;;;;17.95;7.63;;;;;;;11.29;100.00;102676.09;5261846;28;20028;-71
2022/09/21 06:56:42;;;;;;;16.95;8.20;;;;;;;11.92;100.00;102679.78;5262271;28;20418;-70
2022/09/21 06:59:12;;;;;;;19.45;8.52;;;;;;;12.26;100.00;102676.91;5265000;28;20027;-70
2022/09/21 07:01:43;;;;;;;16.77;7.90;;;;;;;12.32;100.00;102670.97;5281365;28;20024;-70
2022/09/21 07:04:13;;;;;;;13.00;7.85;;;;;;;12.39;100.00;102680.22;5274722;28;20031;-71
2022/09/21 07:06:44;;;;;;;20.85;8.73;;;;;;;12.45;100.00;102677.00;5282600;28;20058;-70
2022/09/21 07:09:14;;;;;;;25.08;8.43;;;;;;;12.39;100.00;102677.50;5268122;28;20031;-71
2022/09/21 07:11:46;;;;;;;18.80;8.82;;;;;;;12.43;100.00;102674.44;5269813;28;20219;-71
2022/09/21 07:14:16;;;;;;;15.93;9.20;;;;;;;12.69;100.00;102677.50;5265914;28;20069;-71
2022/09/21 07:16:47;;;;;;;16.38;8.73;;;;;;;13.08;100.00;102684.88;5262589;28;20024;-71
2022/09/21 07:19:18;;;;;;;14.82;9.57;;;;;;;13.61;100.00;102690.81;5279182;28;20043;-71
2022/09/21 07:21:48;;;;;;;15.20;9.43;;;;;;;14.17;100.00;102694.59;5265895;28;20026;-71
2022/09/21 07:24:19;;;;;;;21.48;9.35;;;;;;;14.55;100.00;102688.25;5264274;28;20038;-71
2022/09/21 07:26:49;;;;;;;14.30;8.90;;;;;;;14.83;100.00;102682.91;5278811;28;20023;-71
2022/09/21 07:29:20;;;;;;;17.40;9.18;;;;;;;14.88;100.00;102688.72;5272477;28;20035;-71
2022/09/21 07:31:50;;;;;;;19.77;10.35;;;;;;;15.02;100.00;102680.94;5277798;28;20024;-71
2022/09/21 07:34:21;;;;;;;20.80;9.20;;;;;;;15.16;100.00;102687.72;5280611;28;20469;-72
2022/09/21 07:36:52;;;;;;;16.08;8.60;;;;;;;15.83;100.00;102685.50;5284068;28;20020;-71
2022/09/21 07:39:22;;;;;;;20.77;9.70;;;;;;;16.43;100.00;102687.47;5274939;28;20032;-71
2022/09/21 07:41:53;;;;;;;14.15;8.85;;;;;;;16.23;100.00;102676.84;5268892;28;20309;-71
2022/09/21 07:44:24;;;;;;;24.08;10.07;;;;;;;16.12;100.00;102685.25;5273514;28;20056;-71
2022/09/21 07:46:54;;;;;;;17.95;10.32;;;;;;;16.28;100.00;102677.22;5265065;28;20032;-72
2022/09/21 07:49:25;;;;;;;18.55;9.35;;;;;;;16.57;100.00;102682.31;5264484;28;20074;-72
2022/09/21 07:51:56;;;;;;;16.13;10.23;;;;;;;16.82;100.00;102677.03;5265017;28;20038;-72
2022/09/21 07:54:26;;;;;;;20.88;10.63;;;;;;;16.74;100.00;102672.41;5278279;28;20023;-72
2022/09/21 07:59:45;;;;;;;18.65;10.23;;;;;;;16.81;100.00;102669.91;5280777;28;20024;-72
2022/09/21 08:02:16;;;;;;;23.05;10.73;;;;;;;17.09;100.00;102682.22;5269584;28;20362;-72
2022/09/21 08:04:46;;;;;;;22.80;9.65;;;;;;;17.29;100.00;102684.66;5280198;28;20107;-72
2022/09/21 08:07:18;;;;;;;18.70;9.55;;;;;;;17.40;100.00;102683.47;5265369;28;20474;-71
2022/09/21 08:09:49;;;;;;;13.90;9.15;;;;;;;17.54;100.00;102686.38;5279789;28;20024;-72
2022/09/21 08:12:20;;;;;;;18.45;8.90;;;;;;;17.63;100.00;102683.69;5271881;28;20032;-72
2022/09/21 08:14:50;;;;;;;16.48;9.57;;;;;;;17.68;100.00;102682.16;5281057;28;20111;-72
2022/09/21 08:17:21;;;;;;;16.58;9.50;;;;;;;17.65;100.00;102678.94;5280483;28;20046;-72
2022/09/21 08:19:52;;;;;;;19.50;10.05;;;;;;;17.52;100.00;102684.84;5285513;28;20553;-72
2022/09/21 08:22:24;;;;;;;19.90;9.63;;;;;;;17.63;100.00;102687.25;5283416;28;20020;-72
2022/09/21 08:24:55;;;;;;;20.77;9.48;;;;;;;17.90;100.00;102685.25;5272376;28;20024;-72
2022/09/21 08:27:27;;;;;;;16.10;8.82;;;;;;;18.14;100.00;102687.94;5283354;28;20031;-72
2022/09/21 08:29:58;;;;;;;13.73;8.45;;;;;;;18.25;100.00;102681.31;5283699;28;20031;-72
2022/09/21 08:32:29;;;;;;;19.50;8.85;;;;;;;18.20;100.00;102679.09;5283542;28;20106;-72
2022/09/21 08:34:59;;;;;;;14.52;8.15;;;;;;;18.42;100.00;102682.09;5283176;28;20095;-72
2022/09/21 08:37:30;;;;;;;17.77;9.63;;;;;;;18.51;100.00;102683.78;5284378;28;20114;-72
2022/09/21 08:40:02;;;;;;;13.15;8.55;;;;;;;18.57;100.00;102680.38;5283208;28;20115;-72
2022/09/21 08:43:10;;;;;;;16.73;8.73;;;;;;;18.68;100.00;102681.88;5285659;28;20076;-72
2022/09/21 08:45:44;;;;;;;17.02;9.15;;;;;;;18.78;100.00;102675.25;5274862;28;20028;-72
2022/09/21 08:48:21;;;;;;;14.88;8.23;;;;;;;18.88;100.00;102681.31;5285317;28;20055;-72
2022/09/21 08:50:55;;;;;;;15.95;8.70;;;;;;;19.11;100.00;102684.06;5264617;28;20035;-72
2022/09/21 08:53:45;;;;;;;17.20;9.48;;;;;;;18.79;100.00;102676.09;5269654;28;20019;-72
2022/09/21 08:56:16;;;;;;;20.75;8.82;;;;;;;18.81;100.00;102683.03;5251730;28;20024;-72
2022/09/21 08:58:46;;;;;;;14.70;8.55;;;;;;;18.91;100.00;102674.66;5267662;28;20206;-72
2022/09/21 09:01:44;;;;;;;14.50;7.90;;;;;;;19.03;100.00;102677.84;5266623;28;20047;-72
2022/09/21 09:04:44;;;;;;;10.63;7.57;;;;;;;19.35;100.00;102683.09;5261736;28;20122;-72
2022/09/21 09:07:50;;;;;;;16.33;8.75;;;;;;;19.54;100.00;102686.38;5263946;28;20026;-72
2022/09/21 09:10:34;;;;;;;13.73;7.73;;;;;;;19.79;100.00;102689.81;5273704;28;20024;-72
2022/09/21 09:13:35;;;;;;;15.30;8.27;;;;;;;19.65;100.00;102688.72;5284819;28;20065;-72
2022/09/21 09:16:14;;;;;;;15.98;8.05;;;;;;;19.59;100.00;102686.69;5269133;28;20051;-72
2022/09/21 09:18:49;;;;;;;14.02;9.32;;;;;;;19.60;100.00;102689.25;5283823;28;20023;-72
2022/09/21 09:21:26;;;;;;;13.40;6.75;;;;;;;20.13;100.00;102689.31;5262992;28;20035;-72
2022/09/21 09:24:04;;;;;;;10.15;5.43;;;;;;;20.03;100.00;102686.00;5265253;28;20460;-72
2022/09/21 09:26:41;;;;;;;14.88;6.90;;;;;;;19.85;100.00;102687.19;5276341;28;20074;-72
2022/09/21 09:29:21;;;;;;;10.88;6.00;;;;;;;19.93;100.00;102686.28;5270702;28;20027;-73
2022/09/21 09:31:54;;;;;;;10.98;4.45;;;;;;;20.48;100.00;102687.78;5276240;28;20476;-73
2022/09/21 09:34:48;;;;;;;9.50;5.95;;;;;;;19.97;100.00;102692.19;5278586;28;20016;-73
2022/09/21 09:37:23;;;;;;;12.43;5.13;;;;;;;20.05;100.00;102687.53;5284171;28;20023;-71
2022/09/21 09:39:56;;;;;;;12.38;4.90;;;;;;;20.14;100.00;102680.13;5269680;28;20024;-72
2022/09/21 09:42:45;;;;;;;11.55;4.72;;;;;;;20.33;100.00;102676.00;5284461;28;20098;-73
2022/09/21 09:45:39;;;;;;;10.00;4.78;;;;;;;20.13;100.00;102683.84;5279358;28;20028;-73
2022/09/21 09:48:35;;;;;;;11.68;4.57;;;;;;;20.31;100.00;102684.34;5262212;28;20023;-73
2022/09/21 09:51:10;;;;;;;9.43;4.43;;;;;;;20.18;100.00;102681.41;5275453;28;20036;-73
2022/09/21 09:53:40;;;;;;;14.57;4.70;;;;;;;20.64;100.00;102682.16;5263836;28;20031;-73
2022/09/21 09:56:12;;;;;;;13.68;4.35;;;;;;;20.45;100.00;102679.97;5261704;28;20032;-73
2022/09/21 09:59:07;;;;;;;9.65;3.85;;;;;;;20.40;100.00;102679.69;5283238;28;20084;-73
2022/09/21 10:01:58;;;;;;;10.07;3.37;;;;;;;20.38;100.00;102677.16;5269597;28;20389;-73
2022/09/21 10:04:29;;;;;;;7.97;3.15;;;;;;;20.29;100.00;102674.69;5261731;28;21173;-73
2022/09/21 10:06:59;;;;;;;8.73;3.28;;;;;;;20.27;100.00;102677.59;5272050;28;20023;-72
2022/09/21 10:09:32;;;;;;;14.20;3.70;;;;;;;20.29;100.00;102674.69;5248642;28;20119;-73
2022/09/21 10:12:22;;;;;;;10.00;3.97;;;;;;;20.17;100.00;102672.41;5273088;28;20157;-73
2022/09/21 10:14:58;;;;;;;10.68;3.10;;;;;;;20.05;100.00;102670.34;5275210;28;20678;-73
2022/09/21 10:17:29;;;;;;;6.57;2.35;;;;;;;20.07;100.00;102673.69;5277807;28;20156;-73
2022/09/21 10:20:02;;;;;;;8.48;3.08;;;;;;;19.91;100.00;102680.16;5283293;28;20122;-72
2022/09/21 10:22:33;;;;;;;8.20;2.90;;;;;;;19.87;100.00;102668.75;5266702;28;20381;-72
2022/09/21 10:25:05;;;;;;;5.75;2.53;;;;;;;19.90;98.18;102668.41;5261694;28;20032;-73
2022/09/21 10:27:40;;;;;;;6.32;2.78;;;;;;;19.59;97.07;102675.78;5250327;28;20028;-72
2022/09/21 10:30:33;;;;;;;5.88;2.33;;;;;;;18.87;100.00;102668.72;5276079;28;20023;-73
2022/09/21 10:33:18;;;;;;;8.48;3.13;;;;;;;18.82;100.00;102668.41;5268785;28;20028;-72
2022/09/21 10:35:51;;;;;;;8.27;3.13;;;;;;;18.94;100.00;102651.72;5276688;28;20022;-72
2022/09/21 10:38:27;;;;;;;7.15;2.50;;;;;;;19.37;100.00;102659.25;5269969;28;20024;-72
2022/09/21 10:40:57;;;;;;;9.30;2.80;;;;;;;19.69;100.00;102659.25;5283210;28;20023;-72
2022/09/21 10:43:44;;;;;;;7.80;2.22;;;;;;;20.06;100.00;102666.56;5283238;28;20028;-73
2022/09/21 10:46:15;;;;;;;5.35;2.25;;;;;;;20.03;100.00;102661.47;5281923;28;20031;-72
2022/09/21 10:48:45;;;;;;;3.92;1.73;;;;;;;19.71;100.00;102657.19;5277446;28;20024;-73
2022/09/21 10:51:33;;;;;;;3.83;1.40;;;;;;;19.87;100.00;102657.88;5262601;28;20058;-72
2022/09/21 10:54:07;;;;;;;4.30;1.38;;;;;;;19.90;86.11;102659.41;5276026;28;20110;-72
2022/09/21 10:56:50;;;;;;;5.93;1.80;;;;;;;20.07;91.54;102655.47;5268988;28;20020;-72
2022/09/21 10:59:26;;;;;;;7.70;1.30;;;;;;;20.05;89.09;102645.81;5283457;28;20440;-73
2022/09/21 11:01:58;;;;;;;;;;;;;;;19.83;86.42;102655.69;5268670;28;20497;-73
2022/09/21 11:04:50;;;;;;;5.85;1.83;;;;;;;19.64;96.52;102652.47;5295095;27;20369;-73
2022/09/21 11:07:28;;;;;;;5.80;1.20;;;;;;;19.81;98.54;102649.59;5276520;28;20024;-73
2022/09/21 11:10:17;;;;;;;5.55;1.58;;;;;;;19.53;81.32;102654.72;5288094;28;20164;-73
2022/09/21 11:13:25;;;;;;;8.07;1.70;;;;;;;18.96;87.16;102652.38;5289014;28;20293;-72
2022/09/21 11:16:11;;;;;;;4.72;1.20;;;;;;;18.69;100.00;102643.69;5285123;28;20403;-72
2022/09/21 11:19:04;;;;;;;4.90;1.65;;;;;;;18.78;98.74;102639.06;5267486;28;20117;-72
2022/09/21 11:22:05;;;;;;;6.32;1.00;;;;;;;19.17;92.91;102644.44;5267592;28;20537;-72
2022/09/21 11:24:52;;;;;;;6.15;1.30;;;;;;;19.42;92.33;102635.06;5266651;28;20070;-73
2022/09/21 11:27:28;;;;;;;4.82;1.70;;;;;;;19.64;86.29;102638.00;5283732;28;20382;-73
2022/09/21 11:30:12;;;;;;;5.10;1.35;;;;;;;19.78;92.20;102636.34;5278327;28;20032;-72
2022/09/21 11:33:01;;;;;;;6.03;1.85;;;;;;;19.77;83.67;102638.22;5281208;28;20385;-71
2022/09/21 11:36:09;;;;;;;8.18;1.65;;;;;;;19.41;88.89;102624.38;5288342;28;20057;-72
2022/09/21 11:39:02;;;;;;;6.72;1.33;;;;;;;18.91;85.21;102630.31;5284646;28;20032;-71
2022/09/21 11:42:05;;;;;;;5.90;1.27;;;;;;;18.50;93.46;102627.75;5281415;28;20377;-72
2022/09/21 11:44:37;;;;;;;8.00;1.30;;;;;;;18.08;91.40;102631.59;5266237;28;20028;-72
2022/09/21 11:47:44;;;;;;;5.07;1.20;;;;;;;17.89;100.00;102630.09;5266793;28;20099;-72
2022/09/21 11:50:46;;;;;;;7.45;1.15;;;;;;;17.77;100.00;102629.59;5272187;28;20553;-72
2022/09/21 11:53:19;;;;;;;6.97;1.50;;;;;;;18.02;100.00;102621.41;5270576;28;20051;-71
2022/09/21 11:55:51;;;;;;;5.25;1.40;;;;;;;18.33;99.79;102614.22;5265657;28;20477;-72
2022/09/21 11:58:56;;;;;;;3.60;1.05;;;;;;;18.76;88.27;102617.47;5274739;28;20059;-72
2022/09/21 12:01:47;;;;;;;4.57;0.82;;;;;;;19.19;87.93;102620.63;5276602;28;20702;-72